Time;durP1;ratioP1;P1;durP2;ratioP2;P2;SDS_P1;SDS_P2;PMS_P1;PMS_P2;Temp;Humidity;BMP_temperature;BMP_pressure;BME280_temperature;BME280_humidity;BME280_pressure;Samples;Min_cycle;Max_cycle;Signal;HPM_P1;HPM_P2
2023/03/19 00:10:38;;;;;;;14.50;7.63;;;10.00;99.90;;;;;;6401062;22;20029;-87
2023/03/19 00:13:04;;;;;;;16.02;7.97;;;10.00;99.90;;;;;;6241866;22;20415;-86
2023/03/19 00:15:30;;;;;;;15.13;8.67;;;10.00;99.90;;;;;;6241470;22;20041;-88
2023/03/19 00:17:56;;;;;;;14.03;8.10;;;10.00;99.90;;;;;;6241506;22;20359;-86
2023/03/19 00:20:22;;;;;;;14.95;7.90;;;10.00;99.90;;;;;;6266649;22;20017;-87
2023/03/19 00:22:56;;;;;;;15.90;8.70;;;10.00;99.90;;;;;;6242290;22;20036;-87
2023/03/19 00:25:23;;;;;;;16.45;8.07;;;10.00;99.90;;;;;;6240856;22;20351;-87
2023/03/19 00:27:48;;;;;;;15.60;7.60;;;10.00;99.90;;;;;;6242108;22;20025;-87
2023/03/19 00:30:14;;;;;;;16.10;8.53;;;10.00;99.90;;;;;;6192066;22;20010;-87
2023/03/19 00:32:40;;;;;;;12.88;7.32;;;10.00;99.90;;;;;;6216815;22;20262;-88
2023/03/19 00:35:07;;;;;;;14.30;7.97;;;10.00;99.90;;;;;;6241266;22;20022;-87
2023/03/19 00:37:35;;;;;;;13.68;7.65;;;10.00;99.90;;;;;;6216479;22;20304;-87
2023/03/19 00:40:01;;;;;;;14.05;8.13;;;9.90;99.90;;;;;;6241682;22;20010;-87
2023/03/19 00:42:26;;;;;;;15.15;8.27;;;9.90;99.90;;;;;;6241696;22;20029;-88
2023/03/19 00:44:52;;;;;;;14.60;8.33;;;9.90;99.90;;;;;;6241141;22;20010;-88
2023/03/19 00:47:18;;;;;;;13.47;7.63;;;9.80;99.90;;;;;;6242146;22;20018;-87
2023/03/19 00:49:44;;;;;;;14.80;7.90;;;9.80;99.90;;;;;;6216208;22;20045;-88
2023/03/19 00:52:09;;;;;;;14.10;7.90;;;9.80;99.90;;;;;;6241574;22;20025;-87
2023/03/19 00:54:35;;;;;;;13.87;7.50;;;9.70;99.90;;;;;;6241368;22;20055;-88
2023/03/19 00:57:01;;;;;;;13.93;7.63;;;9.70;99.90;;;;;;6191414;22;20092;-86
2023/03/19 00:59:26;;;;;;;14.53;8.33;;;9.70;99.90;;;;;;6266445;22;20021;-87
2023/03/19 01:01:52;;;;;;;14.17;7.77;;;9.70;99.90;;;;;;6266504;22;20014;-87
2023/03/19 01:04:18;;;;;;;14.47;7.57;;;9.70;99.90;;;;;;6241293;22;20010;-88
2023/03/19 01:06:44;;;;;;;16.63;8.83;;;9.70;99.90;;;;;;6240920;22;20013;-88
2023/03/19 01:09:10;;;;;;;15.80;8.23;;;9.70;99.90;;;;;;6241847;22;20021;-87
2023/03/19 01:11:35;;;;;;;15.63;8.73;;;9.70;99.90;;;;;;6241206;22;20477;-87
2023/03/19 01:14:02;;;;;;;14.48;8.05;;;9.80;99.90;;;;;;6402270;22;20115;-87
2023/03/19 01:16:27;;;;;;;16.02;8.30;;;9.80;99.90;;;;;;6266283;22;20010;-88
2023/03/19 01:18:53;;;;;;;14.63;8.70;;;9.80;99.90;;;;;;6241533;22;20025;-87
2023/03/19 01:21:20;;;;;;;15.95;7.35;;;9.80;99.90;;;;;;6216488;22;20417;-87
2023/03/19 01:23:46;;;;;;;15.25;8.10;;;9.80;99.90;;;;;;6241341;22;20013;-88
2023/03/19 01:26:12;;;;;;;15.60;8.15;;;9.90;99.90;;;;;;6215824;22;20072;-87
2023/03/19 01:28:38;;;;;;;15.88;8.38;;;9.90;99.90;;;;;;6240568;22;20047;-88
2023/03/19 01:31:08;;;;;;;14.32;8.43;;;9.90;99.90;;;;;;6264891;22;20438;-88
2023/03/19 01:33:36;;;;;;;17.67;8.48;;;9.90;99.90;;;;;;6215960;22;20025;-88
2023/03/19 01:36:04;;;;;;;14.60;8.60;;;9.90;99.90;;;;;;6266851;22;20433;-88
2023/03/19 01:38:30;;;;;;;15.77;9.00;;;9.90;99.90;;;;;;6242599;22;20028;-88
2023/03/19 01:40:56;;;;;;;15.90;8.55;;;9.90;99.90;;;;;;6242229;22;20017;-87
2023/03/19 01:43:24;;;;;;;15.85;8.05;;;9.90;99.90;;;;;;6242692;22;20032;-88
2023/03/19 01:46:06;;;;;;;14.93;8.13;;;10.00;99.90;;;;;;6267610;22;20014;-87
2023/03/19 01:48:44;;;;;;;11.98;7.03;;;10.00;99.90;;;;;;6403625;22;20014;-87
2023/03/19 01:51:15;;;;;;;13.32;7.55;;;10.00;99.90;;;;;;6242375;22;20354;-88
2023/03/19 01:53:46;;;;;;;11.43;6.60;;;10.00;99.90;;;;;;6267835;22;20447;-88
2023/03/19 01:56:22;;;;;;;13.40;7.13;;;10.00;99.90;;;;;;6242455;22;20097;-88
2023/03/19 01:58:52;;;;;;;13.70;7.18;;;10.00;99.90;;;;;;6242344;22;20014;-88
2023/03/19 02:01:19;;;;;;;14.25;7.82;;;10.00;99.90;;;;;;6267347;22;20438;-87
2023/03/19 02:03:45;;;;;;;13.30;7.25;;;10.10;99.90;;;;;;6242647;22;20018;-87
2023/03/19 02:06:13;;;;;;;12.50;7.38;;;10.00;99.90;;;;;;6267758;22;20096;-88
2023/03/19 02:08:40;;;;;;;12.48;7.13;;;10.10;99.90;;;;;;6267927;22;20017;-88
2023/03/19 02:11:06;;;;;;;11.63;6.13;;;10.10;99.90;;;;;;6241898;22;20041;-87
2023/03/19 02:13:33;;;;;;;12.38;6.53;;;10.10;99.90;;;;;;6242506;22;20021;-88
2023/03/19 02:16:00;;;;;;;11.55;5.93;;;10.10;99.90;;;;;;6403276;22;20029;-88
2023/03/19 02:18:44;;;;;;;10.82;5.78;;;10.20;99.90;;;;;;6217547;22;20018;-88
2023/03/19 02:21:15;;;;;;;9.68;5.10;;;10.20;99.90;;;;;;6216728;22;20016;-88
2023/03/19 02:23:54;;;;;;;10.43;5.15;;;10.30;99.90;;;;;;6266846;22;20350;-86
2023/03/19 02:26:22;;;;;;;11.20;5.30;;;10.30;99.90;;;;;;6241700;22;20014;-87
2023/03/19 02:28:50;;;;;;;9.95;5.80;;;10.30;99.90;;;;;;6266988;22;20336;-88
2023/03/19 02:31:17;;;;;;;12.27;5.43;;;10.30;99.90;;;;;;6267604;22;20071;-87
2023/03/19 02:34:31;;;;;;;10.13;5.43;;;10.30;99.90;;;;;;6242409;22;20074;-88
2023/03/19 02:37:43;;;;;;;11.82;6.03;;;10.30;99.90;;;;;;6223972;22;20067;-89
2023/03/19 02:40:32;;;;;;;11.07;5.88;;;10.40;99.90;;;;;;6262270;22;20012;-88
2023/03/19 02:42:58;;;;;;;12.80;5.90;;;10.20;99.90;;;;;;6241848;22;20377;-88
2023/03/19 02:45:28;;;;;;;9.53;5.50;;;10.30;99.90;;;;;;6241781;22;20018;-89
2023/03/19 02:47:54;;;;;;;9.10;5.07;;;10.30;99.90;;;;;;6266912;22;20010;-88
2023/03/19 02:50:20;;;;;;;10.27;5.35;;;10.20;99.90;;;;;;6267261;22;20062;-89
2023/03/19 02:52:46;;;;;;;9.80;5.50;;;10.30;99.90;;;;;;6241987;22;20101;-89
2023/03/19 02:55:11;;;;;;;10.03;5.17;;;10.20;99.90;;;;;;6242365;22;20252;-88
2023/03/19 02:57:37;;;;;;;10.70;5.72;;;10.20;99.90;;;;;;6266858;22;20096;-89
2023/03/19 03:00:05;;;;;;;10.00;5.40;;;10.20;99.90;;;;;;6241633;22;20014;-86
2023/03/19 03:02:31;;;;;;;10.75;5.65;;;10.20;99.90;;;;;;6267254;22;20320;-87
2023/03/19 03:04:57;;;;;;;11.27;6.32;;;10.20;99.90;;;;;;6241747;22;20018;-87
2023/03/19 03:07:22;;;;;;;11.87;6.40;;;10.20;99.90;;;;;;6241771;22;20018;-86
2023/03/19 03:09:48;;;;;;;11.33;6.50;;;10.10;99.90;;;;;;6241417;22;20018;-87
2023/03/19 03:12:14;;;;;;;11.97;5.90;;;10.20;99.90;;;;;;6242391;22;20018;-87
2023/03/19 03:14:40;;;;;;;10.85;5.88;;;10.10;99.90;;;;;;6242088;22;20047;-86
2023/03/19 03:17:07;;;;;;;10.63;5.70;;;10.10;99.90;;;;;;6266916;22;20581;-86
2023/03/19 03:19:34;;;;;;;10.73;5.38;;;10.10;99.90;;;;;;6193085;22;20056;-85
2023/03/19 03:22:00;;;;;;;8.77;5.28;;;10.10;99.90;;;;;;6242042;22;20014;-87
2023/03/19 03:24:26;;;;;;;10.95;5.38;;;10.20;99.90;;;;;;6267262;22;20018;-86
2023/03/19 03:26:52;;;;;;;9.82;5.07;;;10.20;99.90;;;;;;6267309;22;20054;-87
2023/03/19 03:29:17;;;;;;;8.90;4.93;;;10.10;99.90;;;;;;6242033;22;20064;-87
2023/03/19 03:31:43;;;;;;;11.70;5.37;;;10.20;99.90;;;;;;6241752;22;20017;-87
2023/03/19 03:34:09;;;;;;;8.32;4.65;;;10.20;99.90;;;;;;6241533;22;20021;-87
2023/03/19 03:36:35;;;;;;;8.90;4.73;;;10.20;99.90;;;;;;6241525;22;20018;-86
2023/03/19 03:41:36;;;;;;;8.88;4.47;;;10.20;99.90;;;;;;6399046;22;20447;-91
2023/03/19 03:44:02;;;;;;;7.63;4.53;;;10.20;99.90;;;;;;6242673;22;20025;-91
2023/03/19 03:46:28;;;;;;;7.67;4.23;;;10.20;99.90;;;;;;6217800;22;20009;-91
2023/03/19 03:48:54;;;;;;;9.63;4.30;;;10.20;99.90;;;;;;6242736;22;20009;-91
2023/03/19 03:51:38;;;;;;;6.63;3.73;;;10.20;99.90;;;;;;6242516;22;20251;-91
2023/03/19 03:54:06;;;;;;;9.93;4.22;;;10.20;99.90;;;;;;6244405;22;20014;-91
2023/03/19 03:56:32;;;;;;;8.33;4.03;;;10.30;99.90;;;;;;6243238;22;20052;-91
2023/03/19 03:59:00;;;;;;;9.35;4.30;;;10.30;99.90;;;;;;6241956;22;20018;-91
2023/03/19 04:01:26;;;;;;;9.50;4.00;;;10.30;99.90;;;;;;6242684;22;20312;-90
2023/03/19 04:03:53;;;;;;;8.95;4.22;;;10.30;99.90;;;;;;6242345;22;20018;-90
2023/03/19 04:06:20;;;;;;;;;;;10.30;99.90;;;;;;6242821;22;20018;-91
2023/03/19 04:08:46;;;;;;;5.70;2.92;;;10.30;99.90;;;;;;6243053;22;20307;-91
2023/03/19 04:11:12;;;;;;;7.07;3.63;;;10.40;99.90;;;;;;6242706;22;20053;-90
2023/03/19 04:13:38;;;;;;;5.95;3.10;;;10.30;99.90;;;;;;6242672;22;20010;-91
2023/03/19 04:16:05;;;;;;;6.83;3.23;;;10.30;99.90;;;;;;6217690;22;20037;-91
2023/03/19 04:18:31;;;;;;;6.18;3.15;;;10.40;99.90;;;;;;6242346;22;20049;-91
2023/03/19 04:20:57;;;;;;;6.13;2.77;;;10.40;99.90;;;;;;6242257;22;20014;-90
2023/03/19 04:23:23;;;;;;;7.50;3.80;;;10.40;99.90;;;;;;6242473;22;20252;-90
2023/03/19 04:25:49;;;;;;;;;;;10.40;99.90;;;;;;6243248;22;20009;-91
2023/03/19 04:28:15;;;;;;;5.57;2.90;;;10.40;99.90;;;;;;6242632;22;20345;-92
2023/03/19 04:30:42;;;;;;;6.10;3.05;;;10.40;99.90;;;;;;6242856;22;20014;-90
2023/03/19 04:33:09;;;;;;;;;;;10.40;99.90;;;;;;6242501;22;20134;-91
2023/03/19 04:35:35;;;;;;;5.90;2.83;;;10.40;99.90;;;;;;6242735;22;19921;-90
2023/03/19 04:38:01;;;;;;;6.22;2.92;;;10.40;99.90;;;;;;6242126;22;20022;-92
2023/03/19 04:40:27;;;;;;;6.53;2.97;;;10.30;99.90;;;;;;6192980;22;20065;-91
2023/03/19 04:42:53;;;;;;;5.97;2.83;;;10.30;99.90;;;;;;6192111;22;20052;-90
2023/03/19 04:45:19;;;;;;;6.20;2.97;;;10.30;99.90;;;;;;6192853;22;20439;-90
2023/03/19 04:47:45;;;;;;;5.78;2.80;;;10.30;99.90;;;;;;6217455;22;20045;-92
2023/03/19 04:50:11;;;;;;;5.63;2.67;;;10.40;99.90;;;;;;6217019;22;20381;-89
2023/03/19 04:52:38;;;;;;;4.93;2.63;;;10.30;99.90;;;;;;6217759;22;20255;-90
2023/03/19 04:55:07;;;;;;;5.85;2.83;;;10.30;99.90;;;;;;6242387;22;20025;-90
2023/03/19 04:57:33;;;;;;;6.75;2.58;;;10.30;99.90;;;;;;6267525;22;20047;-91
2023/03/19 04:59:59;;;;;;;5.10;2.50;;;10.30;99.90;;;;;;6241897;22;20014;-89
2023/03/19 05:02:25;;;;;;;5.43;2.90;;;10.30;99.90;;;;;;6217302;22;20071;-89
2023/03/19 05:04:51;;;;;;;;;;;10.30;99.90;;;;;;6217940;22;20014;-89
2023/03/19 05:07:17;;;;;;;6.32;3.08;;;10.30;99.90;;;;;;6241947;22;19914;-90
2023/03/19 05:09:45;;;;;;;7.33;3.20;;;10.30;99.90;;;;;;6242957;22;20051;-90
2023/03/19 05:12:11;;;;;;;6.85;3.05;;;10.30;99.90;;;;;;6218890;22;20043;-90
2023/03/19 05:14:36;;;;;;;7.68;3.35;;;10.20;99.90;;;;;;6218856;22;20013;-90
2023/03/19 05:17:03;;;;;;;6.43;3.03;;;10.30;99.90;;;;;;6218221;22;20461;-90
2023/03/19 05:19:53;;;;;;;5.75;2.92;;;10.20;99.90;;;;;;6244437;22;20018;-90
2023/03/19 05:22:53;;;;;;;4.55;2.13;;;10.20;99.90;;;;;;6269723;22;20006;-89
2023/03/19 05:25:34;;;;;;;5.25;2.72;;;10.20;99.90;;;;;;6244165;22;20014;-89
2023/03/19 05:28:16;;;;;;;5.32;2.63;;;10.20;99.90;;;;;;6218743;22;20010;-90
2023/03/19 05:31:02;;;;;;;6.00;2.67;;;10.20;99.90;;;;;;6270131;22;20018;-90
2023/03/19 05:33:28;;;;;;;5.40;2.47;;;10.10;99.90;;;;;;6243652;22;20315;-90
2023/03/19 05:36:25;;;;;;;5.57;2.67;;;10.10;99.90;;;;;;6194481;22;20017;-90
2023/03/19 05:39:19;;;;;;;5.32;2.35;;;10.10;99.90;;;;;;6244817;22;20018;-89
2023/03/19 05:45:03;;;;;;;5.43;2.38;;;10.00;99.90;;;;;;6404834;22;20092;-89
2023/03/19 05:47:48;;;;;;;5.30;2.38;;;10.00;99.90;;;;;;6351635;22;20068;-90
2023/03/19 05:50:27;;;;;;;6.07;3.00;;;9.90;99.90;;;;;;6377161;22;20084;-90
2023/03/19 05:52:52;;;;;;;5.65;2.50;;;9.80;99.90;;;;;;6350174;22;20070;-90
2023/03/19 05:55:40;;;;;;;6.07;3.30;;;9.70;99.90;;;;;;6298946;22;20010;-91
2023/03/19 05:58:15;;;;;;;5.20;2.33;;;9.70;99.90;;;;;;6350588;22;20013;-92
2023/03/19 06:00:41;;;;;;;5.20;2.33;;;9.60;99.90;;;;;;6324187;22;20462;-92
2023/03/19 06:03:07;;;;;;;5.95;2.30;;;9.60;99.90;;;;;;6298534;22;20014;-91
2023/03/19 06:05:33;;;;;;;6.20;2.77;;;9.60;99.90;;;;;;6324383;22;20018;-91
2023/03/19 06:07:58;;;;;;;5.63;2.53;;;9.60;99.90;;;;;;6349902;22;20039;-92
2023/03/19 06:10:24;;;;;;;4.27;2.07;;;9.50;99.90;;;;;;6272146;22;20363;-86
2023/03/19 06:12:50;;;;;;;5.53;2.80;;;9.50;99.90;;;;;;6348684;22;20120;-87
2023/03/19 06:15:16;;;;;;;4.50;2.30;;;9.50;99.90;;;;;;6242438;22;20010;-86
2023/03/19 06:17:43;;;;;;;4.53;2.10;;;9.40;99.90;;;;;;6217459;22;20014;-86
2023/03/19 06:20:10;;;;;;;6.38;2.80;;;9.40;99.90;;;;;;6193432;22;20010;-87
2023/03/19 06:22:55;;;;;;;5.78;2.40;;;9.40;99.90;;;;;;6242227;22;20021;-86
2023/03/19 06:25:21;;;;;;;5.60;2.20;;;9.40;99.90;;;;;;6242145;22;20018;-85
2023/03/19 06:27:46;;;;;;;4.87;2.07;;;9.40;99.90;;;;;;6217304;22;20075;-86
2023/03/19 06:30:13;;;;;;;5.22;2.20;;;9.40;99.90;;;;;;6403495;22;20370;-86
2023/03/19 06:32:39;;;;;;;4.78;2.30;;;9.40;99.90;;;;;;6242181;22;20378;-86
2023/03/19 06:35:05;;;;;;;4.72;2.13;;;9.40;99.90;;;;;;6217123;22;20021;-86
2023/03/19 06:37:58;;;;;;;5.90;2.30;;;9.40;99.90;;;;;;6267448;22;20342;-85
2023/03/19 06:41:08;;;;;;;6.30;2.65;;;9.40;99.90;;;;;;6242204;22;20025;-86
2023/03/19 06:43:45;;;;;;;5.50;2.55;;;9.40;99.90;;;;;;6268588;22;20018;-92
2023/03/19 06:46:11;;;;;;;6.18;2.75;;;9.50;99.90;;;;;;6268159;22;20018;-92
2023/03/19 06:48:37;;;;;;;6.85;2.97;;;9.50;99.90;;;;;;6243211;22;20052;-92
2023/03/19 06:51:03;;;;;;;6.03;3.05;;;9.60;99.90;;;;;;6218294;22;20021;-91
2023/03/19 06:53:28;;;;;;;6.45;2.92;;;9.80;99.90;;;;;;6193819;22;20018;-91
2023/03/19 06:55:54;;;;;;;6.03;2.90;;;10.00;99.90;;;;;;6193143;22;20018;-92
2023/03/19 06:58:30;;;;;;;6.50;3.30;;;10.10;99.90;;;;;;6193663;22;20020;-94
2023/03/19 07:00:56;;;;;;;5.35;2.65;;;10.20;99.90;;;;;;6242989;22;20075;-92
2023/03/19 07:03:53;;;;;;;7.10;3.43;;;10.50;99.90;;;;;;6193941;22;20365;-90
2023/03/19 07:06:42;;;;;;;6.82;3.22;;;10.60;99.90;;;;;;6243636;22;20640;-91
2023/03/19 07:09:26;;;;;;;7.63;2.88;;;10.60;99.90;;;;;;6243286;22;20045;-94
2023/03/19 07:26:10;;;;;;;7.22;3.60;;;11.70;99.90;;;;;;6411046;22;20006;-92
2023/03/19 07:28:36;;;;;;;8.27;3.25;;;11.70;99.90;;;;;;6201954;22;20045;-89
2023/03/19 07:33:37;;;;;;;6.72;3.40;;;11.70;99.90;;;;;;6410983;22;20009;-90
2023/03/19 07:36:03;;;;;;;7.67;3.77;;;11.70;99.90;;;;;;6203789;22;20105;-95
2023/03/19 07:38:28;;;;;;;7.63;3.35;;;11.80;99.90;;;;;;6233317;22;20662;-94
2023/03/19 07:40:57;;;;;;;7.43;3.57;;;12.20;99.90;;;;;;6230168;22;20014;-89
2023/03/19 07:43:23;;;;;;;7.90;4.07;;;12.60;99.90;;;;;;6256258;22;20101;-93
2023/03/19 07:45:50;;;;;;;7.60;3.53;;;12.90;99.90;;;;;;6411927;22;20005;-90
2023/03/19 07:48:16;;;;;;;;;;;12.90;99.90;;;;;;6229260;22;20014;-94
2023/03/19 07:50:42;;;;;;;8.40;3.97;;;13.00;99.90;;;;;;6223664;22;19913;-89
2023/03/19 07:53:08;;;;;;;7.77;4.27;;;13.30;99.90;;;;;;6415448;22;20101;-91
2023/03/19 07:55:33;;;;;;;11.70;4.95;;;13.30;99.90;;;;;;6250076;22;20239;-88
2023/03/19 07:57:59;;;;;;;9.57;4.27;;;13.20;99.90;;;;;;6275003;22;20041;-94
2023/03/19 08:00:26;;;;;;;10.13;5.35;;;12.90;99.90;;;;;;6254552;22;20716;-95
2023/03/19 08:02:52;;;;;;;9.77;5.07;;;12.70;99.90;;;;;;6278381;22;20041;-94
2023/03/19 08:05:18;;;;;;;10.13;5.03;;;12.40;99.90;;;;;;6280669;22;20018;-88
2023/03/19 08:07:44;;;;;;;10.05;5.15;;;12.30;99.90;;;;;;6253568;22;20010;-96
2023/03/19 08:10:10;;;;;;;11.77;5.77;;;12.20;99.90;;;;;;6200910;23;20004;-90
2023/03/19 08:12:39;;;;;;;8.93;4.75;;;12.10;99.90;;;;;;6201075;23;20091;-95
2023/03/19 08:15:16;;;;;;;10.32;5.20;;;12.00;99.90;;;;;;6222783;23;20008;-87
2023/03/19 08:17:41;;;;;;;10.53;4.40;;;11.80;99.90;;;;;;6202347;23;20024;-89
2023/03/19 08:20:11;;;;;;;10.47;5.30;;;11.70;99.90;;;;;;6225548;22;20016;-93
2023/03/19 08:22:56;;;;;;;10.23;5.00;;;11.60;99.90;;;;;;6250387;23;20056;-92
2023/03/19 08:25:22;;;;;;;10.38;5.82;;;11.60;99.90;;;;;;6226588;22;20027;-95
2023/03/19 08:27:49;;;;;;;9.73;5.20;;;11.50;99.90;;;;;;6201723;23;20472;-86
2023/03/19 08:30:15;;;;;;;10.82;5.20;;;11.50;99.90;;;;;;6225416;22;20023;-92
2023/03/19 08:33:31;;;;;;;11.05;5.18;;;11.50;99.90;;;;;;6202737;22;20005;-91
2023/03/19 08:36:17;;;;;;;9.82;5.10;;;11.60;99.90;;;;;;6255712;23;20051;-86
2023/03/19 08:38:42;;;;;;;12.35;5.82;;;11.60;99.90;;;;;;6219205;23;20391;-85
2023/03/19 08:41:09;;;;;;;9.52;5.10;;;11.60;99.90;;;;;;6224057;22;20054;-88
2023/03/19 08:43:36;;;;;;;11.52;6.18;;;11.80;99.90;;;;;;6332181;22;20064;-88
2023/03/19 08:46:03;;;;;;;11.65;5.72;;;11.80;99.90;;;;;;6229537;23;20016;-96
2023/03/19 08:48:29;;;;;;;12.73;6.70;;;11.90;99.90;;;;;;6248501;23;20107;-94
2023/03/19 08:50:56;;;;;;;11.38;6.25;;;12.00;99.90;;;;;;6219163;22;20077;-89
2023/03/19 08:53:23;;;;;;;11.30;6.28;;;12.10;99.90;;;;;;6243081;23;20068;-93
2023/03/19 08:55:53;;;;;;;10.85;5.90;;;12.10;99.90;;;;;;6216199;22;20016;-92
2023/03/19 08:58:19;;;;;;;13.90;5.90;;;12.00;99.90;;;;;;6241283;23;20017;-94
2023/03/19 09:00:46;;;;;;;10.75;5.50;;;12.00;99.90;;;;;;6216883;23;20579;-92
2023/03/19 09:03:11;;;;;;;10.45;5.50;;;12.00;99.90;;;;;;6245426;23;20326;-92
2023/03/19 09:05:37;;;;;;;10.27;5.68;;;11.90;99.90;;;;;;6242227;23;20012;-87
2023/03/19 09:08:03;;;;;;;12.23;6.17;;;11.80;99.90;;;;;;6350125;22;20023;-90
2023/03/19 09:10:29;;;;;;;9.63;5.03;;;11.80;99.90;;;;;;6219932;22;20017;-91
2023/03/19 09:12:54;;;;;;;11.07;5.93;;;11.80;99.90;;;;;;6243206;23;20031;-96
2023/03/19 09:15:20;;;;;;;9.90;5.50;;;11.80;99.90;;;;;;6217349;23;20349;-87
2023/03/19 09:17:46;;;;;;;11.40;6.20;;;11.70;99.90;;;;;;6216686;23;20020;-90
2023/03/19 09:20:12;;;;;;;13.23;6.27;;;11.70;99.90;;;;;;6216483;23;20257;-96
2023/03/19 09:22:46;;;;;;;10.87;5.73;;;11.70;99.90;;;;;;6218955;23;20016;-89
2023/03/19 09:25:12;;;;;;;10.02;5.30;;;11.70;99.90;;;;;;6246717;23;20012;-90
2023/03/19 09:27:38;;;;;;;11.20;5.33;;;11.70;99.90;;;;;;6248327;23;20016;-89
2023/03/19 09:30:08;;;;;;;9.17;4.60;;;11.70;99.90;;;;;;6218547;23;20031;-95
2023/03/19 09:33:11;;;;;;;10.80;4.95;;;11.90;99.90;;;;;;6198289;22;20448;-94
2023/03/19 09:35:51;;;;;;;10.40;5.00;;;12.00;99.90;;;;;;6218072;23;20479;-87
2023/03/19 09:38:18;;;;;;;9.95;4.57;;;12.10;99.90;;;;;;6239052;23;20024;-89
2023/03/19 09:41:11;;;;;;;10.50;5.20;;;12.10;99.90;;;;;;6214804;23;20023;-84
2023/03/19 09:43:36;;;;;;;9.45;5.05;;;12.10;99.90;;;;;;6239874;22;20026;-87
2023/03/19 09:46:10;;;;;;;9.63;4.93;;;12.00;99.90;;;;;;6214762;23;20051;-86
2023/03/19 09:48:54;;;;;;;9.32;4.60;;;12.00;99.90;;;;;;6239988;23;20031;-85
2023/03/19 09:51:40;;;;;;;9.52;5.05;;;12.00;99.90;;;;;;6233992;22;20047;-89
2023/03/19 09:54:14;;;;;;;11.52;4.97;;;11.90;99.90;;;;;;6239973;23;20035;-85
2023/03/19 09:56:40;;;;;;;9.65;4.88;;;11.90;99.90;;;;;;6240553;23;20039;-89
2023/03/19 09:59:08;;;;;;;9.63;4.60;;;11.80;99.90;;;;;;6190692;23;20331;-90
2023/03/19 10:06:02;;;;;;;10.05;4.68;;;11.90;99.90;;;;;;6240309;23;20027;-86
2023/03/19 10:08:46;;;;;;;9.07;4.47;;;11.90;99.90;;;;;;6216238;22;20336;-86
2023/03/19 10:11:31;;;;;;;11.27;4.88;;;11.90;99.90;;;;;;6242618;22;20449;-90
2023/03/19 10:14:05;;;;;;;9.88;4.50;;;11.90;99.90;;;;;;6241319;23;20031;-88
2023/03/19 10:16:33;;;;;;;10.73;4.55;;;11.90;99.90;;;;;;6241484;23;20349;-92
2023/03/19 10:19:03;;;;;;;10.95;5.30;;;11.90;99.90;;;;;;6242506;22;20437;-92
2023/03/19 10:22:04;;;;;;;9.32;4.75;;;11.90;99.90;;;;;;6216210;22;20050;-92
2023/03/19 10:24:35;;;;;;;11.05;5.03;;;11.90;99.90;;;;;;6242170;22;20020;-94
2023/03/19 10:27:09;;;;;;;8.90;4.03;;;11.90;99.90;;;;;;6241589;23;20047;-95
2023/03/19 10:29:35;;;;;;;10.20;4.30;;;12.00;99.90;;;;;;6241056;23;20472;-93
2023/03/19 10:32:10;;;;;;;9.55;3.95;;;11.90;99.90;;;;;;6216152;23;20065;-94
2023/03/19 10:34:41;;;;;;;9.57;4.65;;;12.00;99.90;;;;;;6216045;22;20016;-95
2023/03/19 10:37:15;;;;;;;8.27;4.28;;;12.00;99.90;;;;;;6324710;22;20097;-91
2023/03/19 10:39:45;;;;;;;8.38;4.32;;;12.10;99.90;;;;;;6267918;22;20095;-91
2023/03/19 10:42:38;;;;;;;9.55;4.18;;;12.20;99.90;;;;;;6217759;22;20343;-89
2023/03/19 10:45:25;;;;;;;9.52;4.50;;;12.20;99.90;;;;;;6242516;22;20443;-92
2023/03/19 10:47:52;;;;;;;8.73;4.53;;;12.30;99.90;;;;;;6242197;22;20032;-90
2023/03/19 10:50:19;;;;;;;;;;;12.30;99.90;;;;;;6241124;22;20018;-89
2023/03/19 10:52:50;;;;;;;8.88;4.32;;;12.30;99.90;;;;;;6242336;22;20331;-90
2023/03/19 10:55:22;;;;;;;8.30;4.00;;;12.40;99.90;;;;;;6241993;22;20458;-89
2023/03/19 10:57:53;;;;;;;8.30;4.20;;;12.50;99.90;;;;;;6242332;22;20021;-90
2023/03/19 11:00:31;;;;;;;9.68;4.40;;;12.50;99.90;;;;;;6267806;22;20017;-84
2023/03/19 11:02:57;;;;;;;8.73;4.53;;;12.50;99.90;;;;;;6241590;22;20018;-87
2023/03/19 11:05:35;;;;;;;9.75;4.78;;;12.60;99.90;;;;;;6267640;22;20384;-86
2023/03/19 11:08:12;;;;;;;11.27;4.78;;;12.60;99.90;;;;;;6266861;22;20439;-87
2023/03/19 11:10:45;;;;;;;8.43;4.90;;;12.70;99.90;;;;;;6266030;22;20010;-87
2023/03/19 11:13:19;;;;;;;8.88;4.82;;;12.70;99.90;;;;;;6266163;22;20045;-87
2023/03/19 11:16:06;;;;;;;8.85;4.32;;;12.70;99.90;;;;;;6241200;22;20513;-88
2023/03/19 11:18:51;;;;;;;9.13;4.50;;;12.70;99.90;;;;;;6266151;22;20018;-86
2023/03/19 11:21:31;;;;;;;11.05;4.95;;;12.70;99.90;;;;;;6217223;22;20018;-85
2023/03/19 11:24:02;;;;;;;9.15;4.25;;;12.60;99.90;;;;;;6242170;22;20014;-85
2023/03/19 11:26:28;;;;;;;10.55;4.47;;;12.60;99.90;;;;;;6242001;22;20010;-86
2023/03/19 11:29:02;;;;;;;9.70;4.40;;;12.50;99.90;;;;;;6267224;22;20006;-85
2023/03/19 11:31:47;;;;;;;9.05;5.00;;;12.50;99.90;;;;;;6267048;22;20010;-86
2023/03/19 11:34:46;;;;;;;9.35;4.72;;;12.50;99.90;;;;;;6267677;22;20017;-85
2023/03/19 11:37:43;;;;;;;8.77;4.45;;;12.40;99.90;;;;;;6241025;22;20371;-87
2023/03/19 11:40:20;;;;;;;10.35;4.82;;;12.40;99.90;;;;;;6266488;22;20324;-87
2023/03/19 11:42:59;;;;;;;11.50;5.13;;;12.30;99.90;;;;;;6241428;22;20021;-87
2023/03/19 11:45:27;;;;;;;10.00;5.38;;;12.40;99.90;;;;;;6241026;22;20041;-86
2023/03/19 11:48:01;;;;;;;10.13;4.90;;;12.40;99.90;;;;;;6241616;22;20013;-86
2023/03/19 11:51:00;;;;;;;9.77;4.93;;;12.40;99.90;;;;;;6263480;22;20025;-89
2023/03/19 11:53:38;;;;;;;11.10;5.20;;;12.50;99.90;;;;;;6297618;22;20029;-87
2023/03/19 11:56:14;;;;;;;9.90;5.43;;;12.50;99.90;;;;;;6241988;22;20014;-88
2023/03/19 11:59:04;;;;;;;10.18;5.10;;;12.50;99.90;;;;;;6242432;22;20051;-87
2023/03/19 12:01:58;;;;;;;10.45;5.85;;;12.60;99.90;;;;;;6241242;22;20017;-85
2023/03/19 12:05:19;;;;;;;10.15;5.32;;;12.60;99.90;;;;;;6402734;22;20036;-87
2023/03/19 12:08:09;;;;;;;9.63;5.13;;;12.70;99.90;;;;;;6242818;22;20018;-88
2023/03/19 12:11:21;;;;;;;11.23;5.47;;;12.70;99.90;;;;;;6242401;22;20018;-90
2023/03/19 12:13:54;;;;;;;10.43;5.25;;;12.70;99.90;;;;;;6241234;22;20448;-90
2023/03/19 12:16:36;;;;;;;8.65;4.72;;;12.90;99.90;;;;;;6241230;22;20020;-90
2023/03/19 12:19:15;;;;;;;9.07;4.72;;;12.90;99.90;;;;;;6240994;22;20053;-87
2023/03/19 12:21:44;;;;;;;11.35;4.88;;;13.00;99.90;;;;;;6242485;22;20097;-87
2023/03/19 12:24:27;;;;;;;11.18;5.30;;;13.00;99.90;;;;;;6265727;22;20022;-88
2023/03/19 12:27:12;;;;;;;11.18;5.82;;;12.90;99.90;;;;;;6241330;22;20048;-89
2023/03/19 12:29:45;;;;;;;10.57;5.47;;;12.80;99.90;;;;;;6402228;22;20021;-86
2023/03/19 12:32:40;;;;;;;11.00;5.57;;;12.80;99.90;;;;;;6267248;22;20018;-86
2023/03/19 12:35:12;;;;;;;10.00;5.22;;;12.80;99.90;;;;;;6241609;22;20021;-84
2023/03/19 12:38:16;;;;;;;10.57;5.57;;;12.80;99.90;;;;;;6402403;22;20068;-93
2023/03/19 12:40:58;;;;;;;9.48;5.25;;;12.70;99.90;;;;;;6242619;22;20024;-90
2023/03/19 12:43:39;;;;;;;9.55;5.07;;;12.70;99.90;;;;;;6242207;22;20025;-89
2023/03/19 12:46:22;;;;;;;12.13;5.70;;;12.70;99.90;;;;;;6243349;22;20036;-89
2023/03/19 12:49:34;;;;;;;10.10;5.30;;;12.70;99.90;;;;;;6403321;22;20320;-89
2023/03/19 12:55:56;;;;;;;11.20;5.57;;;12.60;99.90;;;;;;6345340;22;20019;-91
2023/03/19 12:58:31;;;;;;;12.35;5.88;;;12.60;99.90;;;;;;6318619;22;20440;-92
2023/03/19 13:01:07;;;;;;;12.63;6.00;;;12.50;99.90;;;;;;6344631;22;20454;-89
2023/03/19 13:04:05;;;;;;;12.98;6.22;;;12.50;99.90;;;;;;6344601;22;20493;-89
2023/03/19 13:06:38;;;;;;;12.60;6.00;;;12.40;99.90;;;;;;6311712;22;20050;-89
2023/03/19 13:09:12;;;;;;;13.10;5.80;;;12.30;99.90;;;;;;6343377;22;20010;-93
2023/03/19 13:11:50;;;;;;;11.60;5.35;;;12.30;99.90;;;;;;6372341;22;20025;-94
2023/03/19 13:14:32;;;;;;;13.13;6.43;;;12.30;99.90;;;;;;6343454;22;20405;-88
2023/03/19 13:17:21;;;;;;;12.70;6.03;;;12.30;99.90;;;;;;6319700;22;20018;-89
2023/03/19 13:19:53;;;;;;;11.00;5.18;;;12.20;99.90;;;;;;6373275;22;20014;-90
2023/03/19 13:22:27;;;;;;;11.88;5.82;;;12.20;99.90;;;;;;6317420;22;20014;-87
2023/03/19 13:24:55;;;;;;;13.80;5.88;;;12.10;99.90;;;;;;6342138;22;20023;-88
2023/03/19 13:27:23;;;;;;;14.85;6.53;;;12.10;99.90;;;;;;6342053;22;20093;-87
2023/03/19 13:30:11;;;;;;;14.18;6.50;;;12.00;99.90;;;;;;6342078;22;20018;-87
2023/03/19 13:32:42;;;;;;;13.63;5.70;;;11.90;99.90;;;;;;6344085;22;20508;-86
2023/03/19 13:35:33;;;;;;;14.00;6.30;;;11.90;99.90;;;;;;6370135;22;20321;-87
2023/03/19 13:38:21;;;;;;;14.90;6.78;;;11.80;99.90;;;;;;6355201;22;20057;-87
2023/03/19 13:40:55;;;;;;;16.15;6.30;;;11.80;99.90;;;;;;6317894;22;20014;-86
2023/03/19 13:43:29;;;;;;;15.80;7.07;;;11.70;99.90;;;;;;6370599;22;20444;-86
2023/03/19 13:46:12;;;;;;;16.40;7.05;;;11.80;99.90;;;;;;6371827;22;20447;-87
2023/03/19 13:48:48;;;;;;;14.32;6.85;;;11.70;99.90;;;;;;6370129;22;20014;-88
2023/03/19 13:51:17;;;;;;;16.92;7.55;;;11.70;99.90;;;;;;6257550;22;20035;-88
2023/03/19 13:54:11;;;;;;;17.08;6.80;;;11.70;99.90;;;;;;6403635;22;20051;-87